sensor_id;sensor_type;location;lat;lon;timestamp;pressure;altitude;pressure_sealevel;temperature;humidity
21781;BME280;52576;53.614;9.894;2023-06-04T00:01:04;102038.47;;;10.78;60.25
21781;BME280;52576;53.614;9.894;2023-06-04T00:03:17;102042.09;;;10.76;60.23
21781;BME280;52576;53.614;9.894;2023-06-04T00:05:21;102038.69;;;10.74;60.61
21781;BME280;52576;53.614;9.894;2023-06-04T00:07:27;102040.53;;;10.72;60.45
21781;BME280;52576;53.614;9.894;2023-06-04T00:09:33;102037.13;;;10.70;60.47
21781;BME280;52576;53.614;9.894;2023-06-04T00:11:38;102035.56;;;10.66;60.45
21781;BME280;52576;53.614;9.894;2023-06-04T00:13:42;102033.06;;;10.64;60.88
21781;BME280;52576;53.614;9.894;2023-06-04T00:15:45;102033.13;;;10.63;60.88
21781;BME280;52576;53.614;9.894;2023-06-04T00:17:49;102030.50;;;10.63;60.97
21781;BME280;52576;53.614;9.894;2023-06-04T00:19:52;102029.72;;;10.61;61.05
21781;BME280;52576;53.614;9.894;2023-06-04T00:21:56;102030.66;;;10.60;60.98
21781;BME280;52576;53.614;9.894;2023-06-04T00:23:59;102036.88;;;10.57;61.06
21781;BME280;52576;53.614;9.894;2023-06-04T00:26:03;102030.91;;;10.53;61.13
21781;BME280;52576;53.614;9.894;2023-06-04T00:28:08;102034.47;;;10.52;61.06
21781;BME280;52576;53.614;9.894;2023-06-04T00:30:12;102034.59;;;10.49;61.13
21781;BME280;52576;53.614;9.894;2023-06-04T00:32:16;102034.75;;;10.46;61.24
21781;BME280;52576;53.614;9.894;2023-06-04T00:34:19;102038.28;;;10.45;61.32
21781;BME280;52576;53.614;9.894;2023-06-04T00:36:23;102037.44;;;10.45;61.26
21781;BME280;52576;53.614;9.894;2023-06-04T00:38:27;102043.53;;;10.45;61.20
21781;BME280;52576;53.614;9.894;2023-06-04T00:40:30;102037.44;;;10.45;61.21
21781;BME280;52576;53.614;9.894;2023-06-04T00:42:33;102035.78;;;10.42;61.27
21781;BME280;52576;53.614;9.894;2023-06-04T00:44:38;102035.97;;;10.39;61.40
21781;BME280;52576;53.614;9.894;2023-06-04T00:46:45;102032.63;;;10.36;61.67
21781;BME280;52576;53.614;9.894;2023-06-04T00:48:49;102031.00;;;10.33;61.70
21781;BME280;52576;53.614;9.894;2023-06-04T00:50:53;102027.66;;;10.30;61.97
21781;BME280;52576;53.614;9.894;2023-06-04T00:52:57;102025.19;;;10.27;62.21
21781;BME280;52576;53.614;9.894;2023-06-04T00:55:00;102023.53;;;10.24;62.33
21781;BME280;52576;53.614;9.894;2023-06-04T00:57:05;102021.00;;;10.23;62.31
21781;BME280;52576;53.614;9.894;2023-06-04T00:59:09;102030.75;;;10.19;62.48
21781;BME280;52576;53.614;9.894;2023-06-04T01:01:18;102027.31;;;10.17;62.65
21781;BME280;52576;53.614;9.894;2023-06-04T01:03:25;102037.94;;;10.14;62.65
21781;BME280;52576;53.614;9.894;2023-06-04T01:05:37;102033.00;;;10.08;62.88
21781;BME280;52576;53.614;9.894;2023-06-04T01:07:44;102031.44;;;10.04;62.83
21781;BME280;52576;53.614;9.894;2023-06-04T01:09:49;102030.78;;;9.99;62.79
21781;BME280;52576;53.614;9.894;2023-06-04T01:11:52;102024.88;;;9.94;62.88
21781;BME280;52576;53.614;9.894;2023-06-04T01:13:56;102026.84;;;9.88;63.06
21781;BME280;52576;53.614;9.894;2023-06-04T01:15:59;102034.94;;;9.84;63.36
21781;BME280;52576;53.614;9.894;2023-06-04T01:18:05;102033.34;;;9.80;63.43
21781;BME280;52576;53.614;9.894;2023-06-04T01:20:19;102036.16;;;9.75;63.62
21781;BME280;52576;53.614;9.894;2023-06-04T01:22:32;102041.53;;;9.72;63.68
21781;BME280;52576;53.614;9.894;2023-06-04T01:24:37;102045.19;;;9.68;63.94
21781;BME280;52576;53.614;9.894;2023-06-04T01:26:44;102037.47;;;9.65;64.19
21781;BME280;52576;53.614;9.894;2023-06-04T01:28:48;102044.59;;;9.62;64.37
21781;BME280;52576;53.614;9.894;2023-06-04T01:30:52;102031.72;;;9.57;64.55
21781;BME280;52576;53.614;9.894;2023-06-04T01:32:59;102041.41;;;9.55;64.83
21781;BME280;52576;53.614;9.894;2023-06-04T01:35:07;102027.66;;;9.50;64.95
21781;BME280;52576;53.614;9.894;2023-06-04T01:37:11;102031.25;;;9.47;64.99
21781;BME280;52576;53.614;9.894;2023-06-04T01:39:15;102030.53;;;9.44;65.07
21781;BME280;52576;53.614;9.894;2023-06-04T01:41:19;102032.38;;;9.42;65.32
21781;BME280;52576;53.614;9.894;2023-06-04T01:43:22;102036.81;;;9.40;65.59
21781;BME280;52576;53.614;9.894;2023-06-04T01:45:27;102039.53;;;9.37;65.56
21781;BME280;52576;53.614;9.894;2023-06-04T01:47:31;102038.84;;;9.33;65.61
21781;BME280;52576;53.614;9.894;2023-06-04T01:49:34;102032.88;;;9.30;65.76
21781;BME280;52576;53.614;9.894;2023-06-04T01:51:41;102031.25;;;9.27;65.79
21781;BME280;52576;53.614;9.894;2023-06-04T01:53:44;102040.06;;;9.25;65.83
21781;BME280;52576;53.614;9.894;2023-06-04T01:55:48;102037.56;;;9.22;65.86
21781;BME280;52576;53.614;9.894;2023-06-04T01:57:52;102036.78;;;9.19;66.05
21781;BME280;52576;53.614;9.894;2023-06-04T01:59:55;102039.53;;;9.16;66.29
21781;BME280;52576;53.614;9.894;2023-06-04T02:01:59;102035.19;;;9.15;66.34
21781;BME280;52576;53.614;9.894;2023-06-04T02:04:04;102035.31;;;9.12;66.58
21781;BME280;52576;53.614;9.894;2023-06-04T02:06:07;102031.91;;;9.10;66.54
21781;BME280;52576;53.614;9.894;2023-06-04T02:08:15;102033.78;;;9.08;66.65
21781;BME280;52576;53.614;9.894;2023-06-04T02:10:21;102035.59;;;9.06;66.87
21781;BME280;52576;53.614;9.894;2023-06-04T02:12:24;102034.81;;;9.04;66.83
21781;BME280;52576;53.614;9.894;2023-06-04T02:14:28;102044.47;;;9.02;66.96
21781;BME280;52576;53.614;9.894;2023-06-04T02:16:31;102032.44;;;8.98;67.01
21781;BME280;52576;53.614;9.894;2023-06-04T02:18:35;102030.84;;;8.94;67.22
21781;BME280;52576;53.614;9.894;2023-06-04T02:20:38;102037.91;;;8.92;67.41
21781;BME280;52576;53.614;9.894;2023-06-04T02:22:42;102042.38;;;8.89;67.55
21781;BME280;52576;53.614;9.894;2023-06-04T02:24:46;102043.34;;;8.86;67.44
21781;BME280;52576;53.614;9.894;2023-06-04T02:26:50;102038.28;;;8.83;67.63
21781;BME280;52576;53.614;9.894;2023-06-04T02:28:53;102037.53;;;8.79;67.94
21781;BME280;52576;53.614;9.894;2023-06-04T02:30:57;102038.50;;;8.77;67.94
21781;BME280;52576;53.614;9.894;2023-06-04T02:33:00;102036.81;;;8.76;68.01
21781;BME280;52576;53.614;9.894;2023-06-04T02:35:04;102034.25;;;8.74;68.07
21781;BME280;52576;53.614;9.894;2023-06-04T02:37:08;102034.31;;;8.73;68.16
21781;BME280;52576;53.614;9.894;2023-06-04T02:39:11;102031.81;;;8.70;68.12
21781;BME280;52576;53.614;9.894;2023-06-04T02:41:16;102028.41;;;8.68;68.23
21781;BME280;52576;53.614;9.894;2023-06-04T02:43:20;102026.69;;;8.67;68.31
21781;BME280;52576;53.614;9.894;2023-06-04T02:45:23;102026.81;;;8.64;68.44
21781;BME280;52576;53.614;9.894;2023-06-04T02:47:27;102030.34;;;8.63;68.62
21781;BME280;52576;53.614;9.894;2023-06-04T02:49:30;102027.78;;;8.61;68.51
21781;BME280;52576;53.614;9.894;2023-06-04T02:51:34;102032.28;;;8.58;68.65
21781;BME280;52576;53.614;9.894;2023-06-04T02:53:37;102031.44;;;8.57;68.78
21781;BME280;52576;53.614;9.894;2023-06-04T02:55:41;102034.19;;;8.54;69.03
21781;BME280;52576;53.614;9.894;2023-06-04T02:57:46;102037.69;;;8.53;68.92
21781;BME280;52576;53.614;9.894;2023-06-04T02:59:49;102033.44;;;8.50;68.96
21781;BME280;52576;53.614;9.894;2023-06-04T03:01:54;102025.59;;;8.50;68.97
21781;BME280;52576;53.614;9.894;2023-06-04T03:03:57;102026.50;;;8.49;69.08
21781;BME280;52576;53.614;9.894;2023-06-04T03:06:01;102028.28;;;8.49;69.16
21781;BME280;52576;53.614;9.894;2023-06-04T03:08:06;102032.66;;;8.48;69.23
21781;BME280;52576;53.614;9.894;2023-06-04T03:10:10;102025.72;;;8.47;69.31
21781;BME280;52576;53.614;9.894;2023-06-04T03:12:14;102023.09;;;8.47;69.45
21781;BME280;52576;53.614;9.894;2023-06-04T03:14:19;102029.22;;;8.46;69.62
21781;BME280;52576;53.614;9.894;2023-06-04T03:16:23;102025.78;;;8.46;69.51
21781;BME280;52576;53.614;9.894;2023-06-04T03:18:26;102019.69;;;8.45;69.61
21781;BME280;52576;53.614;9.894;2023-06-04T03:20:30;102020.59;;;8.44;69.58
21781;BME280;52576;53.614;9.894;2023-06-04T03:22:40;102020.59;;;8.44;69.77
21781;BME280;52576;53.614;9.894;2023-06-04T03:24:44;102025.81;;;8.44;69.67
21781;BME280;52576;53.614;9.894;2023-06-04T03:26:47;102016.28;;;8.43;69.65
21781;BME280;52576;53.614;9.894;2023-06-04T03:28:51;102022.41;;;8.42;69.54
21781;BME280;52576;53.614;9.894;2023-06-04T03:30:57;102026.72;;;8.43;69.54
21781;BME280;52576;53.614;9.894;2023-06-04T03:33:02;102028.50;;;8.43;69.72
21781;BME280;52576;53.614;9.894;2023-06-04T03:35:06;102026.72;;;8.43;69.93
21781;BME280;52576;53.614;9.894;2023-06-04T03:37:10;102024.13;;;8.43;69.95
21781;BME280;52576;53.614;9.894;2023-06-04T03:39:14;102018.00;;;8.44;70.07
21781;BME280;52576;53.614;9.894;2023-06-04T03:41:18;102011.00;;;8.45;70.13
21781;BME280;52576;53.614;9.894;2023-06-04T03:43:22;102022.31;;;8.45;70.14
21781;BME280;52576;53.614;9.894;2023-06-04T03:45:29;102019.63;;;8.47;70.23
21781;BME280;52576;53.614;9.894;2023-06-04T03:47:34;102023.94;;;8.48;70.23
21781;BME280;52576;53.614;9.894;2023-06-04T03:49:38;102030.81;;;8.50;70.21
21781;BME280;52576;53.614;9.894;2023-06-04T03:51:42;102018.56;;;8.53;70.11
21781;BME280;52576;53.614;9.894;2023-06-04T03:53:47;102025.50;;;8.54;70.31
21781;BME280;52576;53.614;9.894;2023-06-04T03:55:50;102028.91;;;8.56;70.34
21781;BME280;52576;53.614;9.894;2023-06-04T03:57:54;102029.66;;;8.58;70.46
21781;BME280;52576;53.614;9.894;2023-06-04T03:59:58;102035.56;;;8.63;70.65
21781;BME280;52576;53.614;9.894;2023-06-04T04:02:01;102034.53;;;8.67;70.39
21781;BME280;52576;53.614;9.894;2023-06-04T04:04:06;102037.03;;;8.70;70.43
21781;BME280;52576;53.614;9.894;2023-06-04T04:06:10;102039.41;;;8.76;70.43
21781;BME280;52576;53.614;9.894;2023-06-04T04:08:14;102031.47;;;8.79;70.34
21781;BME280;52576;53.614;9.894;2023-06-04T04:10:19;102037.34;;;8.84;70.28
21781;BME280;52576;53.614;9.894;2023-06-04T04:12:22;102036.31;;;8.88;70.15
21781;BME280;52576;53.614;9.894;2023-06-04T04:14:26;102050.06;;;8.93;69.97
21781;BME280;52576;53.614;9.894;2023-06-04T04:16:30;102042.03;;;8.98;69.96
21781;BME280;52576;53.614;9.894;2023-06-04T04:18:34;102038.44;;;9.00;69.91
21781;BME280;52576;53.614;9.894;2023-06-04T04:20:39;102044.34;;;9.05;69.95
21781;BME280;52576;53.614;9.894;2023-06-04T04:22:45;102042.47;;;9.09;69.79
21781;BME280;52576;53.614;9.894;2023-06-04T04:24:52;102030.88;;;9.14;69.62
21781;BME280;52576;53.614;9.894;2023-06-04T04:26:56;102037.69;;;9.18;69.25
21781;BME280;52576;53.614;9.894;2023-06-04T04:29:01;102036.66;;;9.23;69.23
21781;BME280;52576;53.614;9.894;2023-06-04T04:31:07;102042.56;;;9.28;69.19
21781;BME280;52576;53.614;9.894;2023-06-04T04:33:12;102040.63;;;9.33;69.06
21781;BME280;52576;53.614;9.894;2023-06-04T04:35:20;102043.94;;;9.36;68.96
21781;BME280;52576;53.614;9.894;2023-06-04T04:37:29;102041.97;;;9.41;68.80
21781;BME280;52576;53.614;9.894;2023-06-04T04:39:34;102044.41;;;9.46;68.71
21781;BME280;52576;53.614;9.894;2023-06-04T04:41:38;102048.66;;;9.48;68.88
21781;BME280;52576;53.614;9.894;2023-06-04T04:43:42;102045.00;;;9.52;68.80
21781;BME280;52576;53.614;9.894;2023-06-04T04:45:54;102040.50;;;9.56;68.84
21781;BME280;52576;53.614;9.894;2023-06-04T04:47:58;102048.16;;;9.61;68.98
21781;BME280;52576;53.614;9.894;2023-06-04T04:50:01;102045.31;;;9.65;69.05
21781;BME280;52576;53.614;9.894;2023-06-04T04:52:05;102047.75;;;9.70;68.99
21781;BME280;52576;53.614;9.894;2023-06-04T04:54:11;102051.88;;;9.75;68.99
21781;BME280;52576;53.614;9.894;2023-06-04T04:56:16;102051.69;;;9.80;69.08
21781;BME280;52576;53.614;9.894;2023-06-04T04:58:23;102047.09;;;9.85;69.05
21781;BME280;52576;53.614;9.894;2023-06-04T05:00:28;102041.63;;;9.90;69.12
21781;BME280;52576;53.614;9.894;2023-06-04T05:02:32;102043.28;;;9.92;69.18
21781;BME280;52576;53.614;9.894;2023-06-04T05:04:36;102040.47;;;9.97;69.19
21781;BME280;52576;53.614;9.894;2023-06-04T05:06:40;102044.66;;;10.01;69.04
21781;BME280;52576;53.614;9.894;2023-06-04T05:08:43;102045.25;;;10.07;69.25
21781;BME280;52576;53.614;9.894;2023-06-04T05:10:50;102049.25;;;10.14;69.16
21781;BME280;52576;53.614;9.894;2023-06-04T05:12:55;102049.88;;;10.21;69.12
21781;BME280;52576;53.614;9.894;2023-06-04T05:15:05;102053.88;;;10.30;69.12
21781;BME280;52576;53.614;9.894;2023-06-04T05:17:09;102050.91;;;10.37;69.02
21781;BME280;52576;53.614;9.894;2023-06-04T05:19:15;102049.69;;;10.44;68.84
21781;BME280;52576;53.614;9.894;2023-06-04T05:21:19;102048.50;;;10.51;68.64
21781;BME280;52576;53.614;9.894;2023-06-04T05:23:28;102045.66;;;10.56;68.46
21781;BME280;52576;53.614;9.894;2023-06-04T05:25:34;102046.38;;;10.60;68.33
21781;BME280;52576;53.614;9.894;2023-06-04T05:27:40;102050.56;;;10.64;68.38
21781;BME280;52576;53.614;9.894;2023-06-04T05:29:45;102046.06;;;10.66;68.16
21781;BME280;52576;53.614;9.894;2023-06-04T05:31:49;102049.31;;;10.71;68.09
21781;BME280;52576;53.614;9.894;2023-06-04T05:33:55;102052.59;;;10.76;68.27
21781;BME280;52576;53.614;9.894;2023-06-04T05:36:01;102054.84;;;10.83;68.08
21781;BME280;52576;53.614;9.894;2023-06-04T05:38:11;102052.69;;;10.92;67.97
21781;BME280;52576;53.614;9.894;2023-06-04T05:40:17;102054.97;;;10.99;67.85
21781;BME280;52576;53.614;9.894;2023-06-04T05:42:21;102060.78;;;11.06;67.56
21781;BME280;52576;53.614;9.894;2023-06-04T05:44:27;102056.09;;;11.12;67.44
21781;BME280;52576;53.614;9.894;2023-06-04T05:46:30;102062.63;;;11.21;67.37
21781;BME280;52576;53.614;9.894;2023-06-04T05:48:34;102058.72;;;11.30;67.30
21781;BME280;52576;53.614;9.894;2023-06-04T05:50:39;102063.53;;;11.39;67.05
21781;BME280;52576;53.614;9.894;2023-06-04T05:52:42;102054.41;;;11.46;66.83
21781;BME280;52576;53.614;9.894;2023-06-04T05:54:47;102055.78;;;11.53;66.71
21781;BME280;52576;53.614;9.894;2023-06-04T05:56:51;102056.28;;;11.61;66.47
21781;BME280;52576;53.614;9.894;2023-06-04T05:58:54;102058.53;;;11.69;66.29
21781;BME280;52576;53.614;9.894;2023-06-04T06:01:01;102058.13;;;11.76;66.20
21781;BME280;52576;53.614;9.894;2023-06-04T06:03:05;102058.53;;;11.86;66.10
21781;BME280;52576;53.614;9.894;2023-06-04T06:05:16;102051.94;;;11.95;65.55
21781;BME280;52576;53.614;9.894;2023-06-04T06:07:19;102063.66;;;12.05;65.61
21781;BME280;52576;53.614;9.894;2023-06-04T06:09:23;102069.28;;;12.14;65.40
21781;BME280;52576;53.614;9.894;2023-06-04T06:11:27;102066.16;;;12.23;64.79
21781;BME280;52576;53.614;9.894;2023-06-04T06:13:31;102068.38;;;12.31;64.67
21781;BME280;52576;53.614;9.894;2023-06-04T06:15:35;102066.22;;;12.39;64.58
21781;BME280;52576;53.614;9.894;2023-06-04T06:17:40;102069.38;;;12.46;64.21
21781;BME280;52576;53.614;9.894;2023-06-04T06:19:43;102068.16;;;12.51;64.06
21781;BME280;52576;53.614;9.894;2023-06-04T06:21:47;102067.75;;;12.59;64.01
21781;BME280;52576;53.614;9.894;2023-06-04T06:23:51;102069.13;;;12.66;63.92
21781;BME280;52576;53.614;9.894;2023-06-04T06:25:54;102070.38;;;12.75;63.91
21781;BME280;52576;53.614;9.894;2023-06-04T06:28:02;102069.03;;;12.83;63.48
21781;BME280;52576;53.614;9.894;2023-06-04T06:30:07;102070.22;;;12.94;63.32
21781;BME280;52576;53.614;9.894;2023-06-04T06:32:12;102077.50;;;13.04;63.11
21781;BME280;52576;53.614;9.894;2023-06-04T06:34:17;102072.75;;;13.11;63.12
21781;BME280;52576;53.614;9.894;2023-06-04T06:36:20;102071.41;;;13.19;62.47
21781;BME280;52576;53.614;9.894;2023-06-04T06:38:24;102071.78;;;13.28;62.29
21781;BME280;52576;53.614;9.894;2023-06-04T06:40:27;102069.59;;;13.36;61.95
21781;BME280;52576;53.614;9.894;2023-06-04T06:42:32;102077.13;;;13.42;61.54
21781;BME280;52576;53.614;9.894;2023-06-04T06:44:36;102071.53;;;13.48;61.25
21781;BME280;52576;53.614;9.894;2023-06-04T06:46:39;102074.44;;;13.57;61.25
21781;BME280;52576;53.614;9.894;2023-06-04T06:48:43;102077.41;;;13.67;60.95
21781;BME280;52576;53.614;9.894;2023-06-04T06:50:49;102075.06;;;13.77;60.65
21781;BME280;52576;53.614;9.894;2023-06-04T06:52:52;102071.03;;;13.85;60.39
21781;BME280;52576;53.614;9.894;2023-06-04T06:54:56;102075.75;;;13.95;60.11
21781;BME280;52576;53.614;9.894;2023-06-04T06:56:59;102075.38;;;14.01;59.53
21781;BME280;52576;53.614;9.894;2023-06-04T06:59:02;102078.56;;;14.06;59.37
21781;BME280;52576;53.614;9.894;2023-06-04T07:01:06;102079.91;;;14.13;58.90
21781;BME280;52576;53.614;9.894;2023-06-04T07:03:10;102072.56;;;14.18;58.28
21781;BME280;52576;53.614;9.894;2023-06-04T07:05:14;102077.47;;;14.24;58.34
21781;BME280;52576;53.614;9.894;2023-06-04T07:07:20;102076.03;;;14.33;58.08
21781;BME280;52576;53.614;9.894;2023-06-04T07:09:24;102076.34;;;14.42;57.96
21781;BME280;52576;53.614;9.894;2023-06-04T07:11:27;102079.19;;;14.53;57.59
21781;BME280;52576;53.614;9.894;2023-06-04T07:13:30;102074.16;;;14.63;57.13
21781;BME280;52576;53.614;9.894;2023-06-04T07:15:37;102076.31;;;14.71;56.63
21781;BME280;52576;53.614;9.894;2023-06-04T07:17:40;102076.78;;;14.77;55.85
21781;BME280;52576;53.614;9.894;2023-06-04T07:19:44;102072.78;;;14.84;55.52
21781;BME280;52576;53.614;9.894;2023-06-04T07:21:47;102081.16;;;14.91;55.34
21781;BME280;52576;53.614;9.894;2023-06-04T07:23:52;102080.69;;;14.99;54.84
21781;BME280;52576;53.614;9.894;2023-06-04T07:25:56;102071.53;;;15.04;54.26
21781;BME280;52576;53.614;9.894;2023-06-04T07:27:59;102070.91;;;15.13;53.40
21781;BME280;52576;53.614;9.894;2023-06-04T07:30:06;102070.22;;;15.24;53.25
21781;BME280;52576;53.614;9.894;2023-06-04T07:32:11;102072.38;;;15.32;53.02
21781;BME280;52576;53.614;9.894;2023-06-04T07:34:14;102074.28;;;15.42;52.62
21781;BME280;52576;53.614;9.894;2023-06-04T07:36:18;102074.53;;;15.52;52.24
21781;BME280;52576;53.614;9.894;2023-06-04T07:38:22;102076.44;;;15.63;52.28
21781;BME280;52576;53.614;9.894;2023-06-04T07:40:27;102073.09;;;15.73;51.42
21781;BME280;52576;53.614;9.894;2023-06-04T07:42:31;102070.91;;;15.80;51.34
21781;BME280;52576;53.614;9.894;2023-06-04T07:44:36;102066.97;;;15.85;50.73
21781;BME280;52576;53.614;9.894;2023-06-04T07:46:40;102064.00;;;15.90;49.83
21781;BME280;52576;53.614;9.894;2023-06-04T07:48:43;102061.06;;;15.94;50.15
21781;BME280;52576;53.614;9.894;2023-06-04T07:50:47;102065.06;;;16.00;49.56
21781;BME280;52576;53.614;9.894;2023-06-04T07:52:50;102065.50;;;16.07;49.48
21781;BME280;52576;53.614;9.894;2023-06-04T07:54:54;102064.09;;;16.14;49.64
21781;BME280;52576;53.614;9.894;2023-06-04T07:56:59;102065.28;;;16.22;49.96
21781;BME280;52576;53.614;9.894;2023-06-04T07:59:02;102066.34;;;16.33;48.86
21781;BME280;52576;53.614;9.894;2023-06-04T08:01:06;102066.72;;;16.39;48.45
21781;BME280;52576;53.614;9.894;2023-06-04T08:03:09;102070.53;;;16.48;47.82
21781;BME280;52576;53.614;9.894;2023-06-04T08:05:13;102066.50;;;16.55;47.25
21781;BME280;52576;53.614;9.894;2023-06-04T08:07:17;102071.34;;;16.61;46.19
21781;BME280;52576;53.614;9.894;2023-06-04T08:09:20;102071.78;;;16.68;46.57
21781;BME280;52576;53.614;9.894;2023-06-04T08:11:24;102066.03;;;16.74;45.91
21781;BME280;52576;53.614;9.894;2023-06-04T08:13:29;102069.00;;;16.82;45.78
21781;BME280;52576;53.614;9.894;2023-06-04T08:15:32;102069.16;;;16.91;45.18
21781;BME280;52576;53.614;9.894;2023-06-04T08:17:56;102072.09;;;17.00;44.61
21781;BME280;52576;53.614;9.894;2023-06-04T08:19:59;102066.13;;;17.09;44.50
21781;BME280;52576;53.614;9.894;2023-06-04T08:22:16;102068.81;;;17.20;44.18
21781;BME280;52576;53.614;9.894;2023-06-04T08:24:37;102067.06;;;17.32;44.24
21781;BME280;52576;53.614;9.894;2023-06-04T08:27:00;102063.59;;;17.42;43.16
21781;BME280;52576;53.614;9.894;2023-06-04T08:29:09;102071.81;;;17.50;42.68
21781;BME280;52576;53.614;9.894;2023-06-04T08:31:24;102072.22;;;17.57;42.50
21781;BME280;52576;53.614;9.894;2023-06-04T08:33:40;102067.22;;;17.65;42.16
21781;BME280;52576;53.614;9.894;2023-06-04T08:35:47;102067.47;;;17.73;41.42
21781;BME280;52576;53.614;9.894;2023-06-04T08:37:51;102073.75;;;17.83;40.94
21781;BME280;52576;53.614;9.894;2023-06-04T08:39:54;102066.06;;;17.91;41.05
21781;BME280;52576;53.614;9.894;2023-06-04T08:42:00;102069.06;;;17.98;40.32
21781;BME280;52576;53.614;9.894;2023-06-04T08:44:05;102071.00;;;18.07;39.96
21781;BME280;52576;53.614;9.894;2023-06-04T08:46:11;102062.69;;;18.12;39.87
21781;BME280;52576;53.614;9.894;2023-06-04T08:48:16;102072.56;;;18.21;39.43
21781;BME280;52576;53.614;9.894;2023-06-04T08:50:22;102070.41;;;18.26;39.24
21781;BME280;52576;53.614;9.894;2023-06-04T08:52:26;102064.63;;;18.32;38.72
21781;BME280;52576;53.614;9.894;2023-06-04T08:54:30;102066.81;;;18.38;38.88
21781;BME280;52576;53.614;9.894;2023-06-04T08:56:35;102061.00;;;18.44;38.52
21781;BME280;52576;53.614;9.894;2023-06-04T08:58:40;102069.19;;;18.52;38.28
21781;BME280;52576;53.614;9.894;2023-06-04T09:00:45;102060.75;;;18.58;37.79
21781;BME280;52576;53.614;9.894;2023-06-04T09:02:50;102067.78;;;18.59;37.51
21781;BME280;52576;53.614;9.894;2023-06-04T09:04:53;102069.22;;;18.63;37.78
21781;BME280;52576;53.614;9.894;2023-06-04T09:07:00;102066.09;;;18.70;37.95
21781;BME280;52576;53.614;9.894;2023-06-04T09:09:08;102066.28;;;18.78;38.04
21781;BME280;52576;53.614;9.894;2023-06-04T09:11:14;102072.56;;;18.88;38.19
21781;BME280;52576;53.614;9.894;2023-06-04T09:13:22;102068.16;;;18.98;38.15
21781;BME280;52576;53.614;9.894;2023-06-04T09:15:26;102072.47;;;19.10;38.18
21781;BME280;52576;53.614;9.894;2023-06-04T09:17:29;102080.44;;;19.21;38.51
21781;BME280;52576;53.614;9.894;2023-06-04T09:19:34;102080.63;;;19.29;37.87
21781;BME280;52576;53.614;9.894;2023-06-04T09:21:49;102080.69;;;19.39;37.45
21781;BME280;52576;53.614;9.894;2023-06-04T09:23:52;102075.97;;;19.43;37.65
21781;BME280;52576;53.614;9.894;2023-06-04T09:25:56;102077.53;;;19.45;36.95
21781;BME280;52576;53.614;9.894;2023-06-04T09:28:05;102076.44;;;19.48;36.87
21781;BME280;52576;53.614;9.894;2023-06-04T09:30:09;102078.59;;;19.54;37.05
21781;BME280;52576;53.614;9.894;2023-06-04T09:32:13;102084.38;;;19.59;36.69
21781;BME280;52576;53.614;9.894;2023-06-04T09:34:27;102083.03;;;19.64;36.70
21781;BME280;52576;53.614;9.894;2023-06-04T09:36:33;102087.72;;;19.72;36.67
21781;BME280;52576;53.614;9.894;2023-06-04T09:38:40;102093.31;;;19.79;36.75
21781;BME280;52576;53.614;9.894;2023-06-04T09:40:48;102092.09;;;19.83;36.55
21781;BME280;52576;53.614;9.894;2023-06-04T09:42:52;102080.59;;;19.82;36.26
21781;BME280;52576;53.614;9.894;2023-06-04T09:44:57;102086.91;;;19.81;36.25
21781;BME280;52576;53.614;9.894;2023-06-04T09:47:03;102087.75;;;19.82;36.45
21781;BME280;52576;53.614;9.894;2023-06-04T09:49:07;102086.53;;;19.86;36.82
21781;BME280;52576;53.614;9.894;2023-06-04T09:51:12;102078.16;;;19.90;36.59
21781;BME280;52576;53.614;9.894;2023-06-04T09:53:19;102078.59;;;19.95;36.26
21781;BME280;52576;53.614;9.894;2023-06-04T09:55:27;102080.59;;;20.03;36.30
21781;BME280;52576;53.614;9.894;2023-06-04T09:57:31;102072.91;;;20.10;36.85
21781;BME280;52576;53.614;9.894;2023-06-04T09:59:39;102071.69;;;20.14;36.53
21781;BME280;52576;53.614;9.894;2023-06-04T10:01:43;102070.19;;;20.21;36.52
21781;BME280;52576;53.614;9.894;2023-06-04T10:03:50;102069.63;;;20.27;36.85
21781;BME280;52576;53.614;9.894;2023-06-04T10:05:56;102074.16;;;20.36;35.50
21781;BME280;52576;53.614;9.894;2023-06-04T10:08:03;102075.34;;;20.43;35.49
21781;BME280;52576;53.614;9.894;2023-06-04T10:10:11;102078.19;;;20.51;35.02
21781;BME280;52576;53.614;9.894;2023-06-04T10:12:21;102075.41;;;20.62;35.13
21781;BME280;52576;53.614;9.894;2023-06-04T10:14:34;102070.09;;;20.72;35.05
21781;BME280;52576;53.614;9.894;2023-06-04T10:16:39;102080.75;;;20.82;34.91
21781;BME280;52576;53.614;9.894;2023-06-04T10:18:44;102072.94;;;20.90;34.21
21781;BME280;52576;53.614;9.894;2023-06-04T10:20:48;102070.97;;;20.92;33.70
21781;BME280;52576;53.614;9.894;2023-06-04T10:22:53;102076.03;;;20.95;33.94
21781;BME280;52576;53.614;9.894;2023-06-04T10:24:58;102071.13;;;21.00;33.89
21781;BME280;52576;53.614;9.894;2023-06-04T10:27:04;102065.94;;;21.08;33.83
21781;BME280;52576;53.614;9.894;2023-06-04T10:29:13;102067.06;;;21.15;34.47
21781;BME280;52576;53.614;9.894;2023-06-04T10:31:17;102066.28;;;21.24;34.05
21781;BME280;52576;53.614;9.894;2023-06-04T10:33:21;102065.84;;;21.29;34.04
21781;BME280;52576;53.614;9.894;2023-06-04T10:35:30;102066.69;;;21.29;33.96
21781;BME280;52576;53.614;9.894;2023-06-04T10:37:34;102073.00;;;21.28;34.29
21781;BME280;52576;53.614;9.894;2023-06-04T10:39:50;102060.91;;;21.34;33.62
21781;BME280;52576;53.614;9.894;2023-06-04T10:42:00;102056.72;;;21.41;33.77
21781;BME280;52576;53.614;9.894;2023-06-04T10:44:06;102065.69;;;21.50;33.41
21781;BME280;52576;53.614;9.894;2023-06-04T10:46:15;102067.63;;;21.57;33.87
21781;BME280;52576;53.614;9.894;2023-06-04T10:48:23;102065.38;;;21.62;33.43
21781;BME280;52576;53.614;9.894;2023-06-04T10:50:31;102060.59;;;21.66;33.74
21781;BME280;52576;53.614;9.894;2023-06-04T10:52:51;102060.31;;;21.69;33.59
21781;BME280;52576;53.614;9.894;2023-06-04T10:55:15;102070.72;;;21.72;33.65
21781;BME280;52576;53.614;9.894;2023-06-04T10:57:20;102065.38;;;21.72;33.48